Arcadia, Florida
Current Conditions -  °F | °C
As of 11:53 PM on Sunday 23 Nov 2014 (Local Time) from KPGD Reporting Station
Broken Clouds Broken Clouds  
Wind Chill: 73°   Ceiling: 2500
Heat Index: 73°   Visibility: 10mi
Dew Point: 71°   Wind: 7mph
Humidity: 93%   Direction: 140°SE
Pressure: 29.96"   Gusts: NA
Location:  27.22°N, 81.86°W
Report Text: KPGD 240453Z AUTO 14006KT 10SM SCT019 BKN025 23/22 A2996 RMK AO2 SLP146 T02280217 403170222 $
Loading
Personal Weather Stations






























Interactive Weather Map New forecast layout! Learn more

10-Day Weather Forecast

Advertisements
Track Severe Weather on mobile